Time;durP1;ratioP1;P1;durP2;ratioP2;P2;SDS_P1;SDS_P2;PMS_P1;PMS_P2;Temp;Humidity;BMP_temperature;BMP_pressure;BME280_temperature;BME280_humidity;BME280_pressure;Samples;Min_cycle;Max_cycle;Signal;HPM_P1;HPM_P2
2023/04/05 00:01:25;;;;;;;3.03;2.40;;;;;;;5.82;nan;-23979.31;4995760;28;20179;-65
2023/04/05 00:03:58;;;;;;;4.43;2.63;;;;;;;5.59;nan;-23972.91;4993737;28;20200;-65
2023/04/05 00:06:28;;;;;;;3.37;2.50;;;;;;;5.59;nan;-23972.91;4993947;28;20188;-64
2023/04/05 00:09:01;;;;;;;3.43;2.43;;;;;;;5.42;nan;-23968.06;4982388;28;20185;-63
2023/04/05 00:11:28;;;;;;;4.20;3.00;;;;;;;5.50;nan;-23970.22;4989789;28;20180;-63
2023/04/05 00:13:55;;;;;;;3.70;2.50;;;;;;;5.61;nan;-23973.34;4993603;28;20200;-66
2023/04/05 00:16:20;;;;;;;4.60;2.80;;;;;;;5.86;nan;-23980.44;4993048;28;20635;-66
2023/04/05 00:18:50;;;;;;;2.80;2.50;;;;;;;5.82;nan;-23979.31;4993598;28;20175;-66
2023/04/05 00:21:22;;;;;;;3.60;2.50;;;;;;;5.94;nan;-23982.72;4993135;28;20181;-67
2023/04/05 00:23:50;;;;;;;4.43;2.80;;;;;;;5.74;nan;-23977.16;4993060;28;20224;-67
2023/04/05 00:26:16;;;;;;;3.00;2.37;;;;;;;5.46;nan;-23969.22;4993015;28;20161;-65
2023/04/05 00:28:42;;;;;;;3.53;2.93;;;;;;;5.90;nan;-23981.44;4992493;28;20248;-66
2023/04/05 00:31:08;;;;;;;3.27;2.63;;;;;;;5.89;nan;-23981.28;4992794;28;20192;-65
2023/04/05 00:33:33;;;;;;;4.07;2.77;;;;;;;5.66;nan;-23974.91;4992829;28;20224;-64
2023/04/05 00:36:13;;;;;;;4.23;3.00;;;;;;;5.93;nan;-23982.44;4990949;28;20180;-63
2023/04/05 00:38:40;;;;;;;5.00;2.57;;;;;;;5.59;nan;-23972.75;4992883;28;20173;-64
2023/04/05 00:41:06;;;;;;;3.10;2.40;;;;;;;5.82;nan;-23979.16;4993010;28;20176;-63
2023/04/05 00:43:31;;;;;;;3.53;2.57;;;;;;;5.63;nan;-23974.03;4991385;28;20203;-66
2023/04/05 00:45:57;;;;;;;2.93;2.20;;;;;;;5.84;nan;-23979.72;4993033;28;20710;-66
2023/04/05 00:48:23;;;;;;;3.93;2.67;;;;;;;5.52;nan;-23970.78;4992599;28;20247;-65
2023/04/05 00:50:49;;;;;;;6.13;2.97;;;;;;;5.83;nan;-23979.59;4992516;28;20203;-65
2023/04/05 00:53:18;;;;;;;4.40;2.60;;;;;;;5.85;nan;-23980.16;4992830;28;20662;-63
2023/04/05 00:55:46;;;;;;;4.27;2.67;;;;;;;5.60;nan;-23973.19;4992829;28;20169;-66
2023/04/05 00:58:12;;;;;;;4.03;2.50;;;;;;;5.90;nan;-23981.44;4992726;28;20592;-66
2023/04/05 01:00:38;;;;;;;3.60;2.53;;;;;;;5.94;nan;-23982.56;4992826;28;20226;-67
2023/04/05 01:03:06;;;;;;;3.87;2.43;;;;;;;5.57;nan;-23972.19;4992875;28;20200;-62
2023/04/05 01:05:47;;;;;;;3.30;2.30;;;;;;;5.89;nan;-23981.28;4994661;28;20176;-66
2023/04/05 01:08:18;;;;;;;3.47;2.77;;;;;;;5.90;nan;-23981.44;4993195;28;20172;-66
2023/04/05 01:10:48;;;;;;;3.13;2.27;;;;;;;6.00;nan;-23984.28;4992755;28;20161;-66
2023/04/05 01:13:16;;;;;;;3.63;2.63;;;;;;;5.93;nan;-23982.44;4992783;28;20275;-65
2023/04/05 01:15:41;;;;;;;3.30;2.67;;;;;;;5.87;nan;-23980.72;4992196;28;20529;-63
2023/04/05 01:18:09;;;;;;;4.23;2.77;;;;;;;5.78;nan;-23978.16;4992184;28;20234;-66
2023/04/05 01:20:41;;;;;;;3.20;2.73;;;;;;;5.44;nan;-23968.63;4992498;28;20241;-62
2023/04/05 01:23:54;;;;;;;4.13;2.47;;;;;;;5.85;nan;-23980.16;4992237;28;20204;-64
2023/04/05 01:26:34;;;;;;;3.47;2.67;;;;;;;5.73;nan;-23976.88;4947216;28;20192;-66
2023/04/05 01:29:37;;;;;;;4.10;2.30;;;;;;;5.75;nan;-23977.31;4992401;28;20212;-66
2023/04/05 01:32:12;;;;;;;3.77;2.73;;;;;;;5.73;nan;-23976.75;4993103;28;20161;-65
2023/04/05 01:34:52;;;;;;;4.63;2.93;;;;;;;5.63;nan;-23974.03;4992787;28;20161;-66
2023/04/05 01:37:21;;;;;;;3.77;2.67;;;;;;;5.47;nan;-23969.34;4992416;28;20648;-66
2023/04/05 01:39:49;;;;;;;5.80;3.50;;;;;;;5.73;nan;-23976.75;4992490;28;20191;-67
2023/04/05 01:42:23;;;;;;;4.10;3.17;;;;;;;5.46;nan;-23969.06;4992469;28;20181;-66
2023/04/05 01:44:48;;;;;;;4.23;2.63;;;;;;;5.61;nan;-23973.47;4992110;28;20223;-66
2023/04/05 01:47:14;;;;;;;4.67;2.90;;;;;;;5.28;nan;-23964.22;4992373;28;20225;-67
2023/04/05 01:49:39;;;;;;;4.60;2.73;;;;;;;5.32;nan;-23965.38;4992433;28;20637;-63
2023/04/05 01:52:04;;;;;;;3.90;2.93;;;;;;;5.49;nan;-23969.91;4992422;28;20177;-63
2023/04/05 01:54:30;;;;;;;3.73;2.93;;;;;;;5.28;nan;-23964.22;4991989;28;20172;-63
2023/04/05 01:56:55;;;;;;;3.90;2.83;;;;;;;5.40;nan;-23967.50;4992071;28;20235;-66
2023/04/05 01:59:21;;;;;;;4.37;3.00;;;;;;;5.52;nan;-23970.91;4991987;28;20208;-66
2023/04/05 02:01:46;;;;;;;4.73;3.00;;;;;;;5.12;nan;-23959.53;4992082;28;20191;-65
2023/04/05 02:04:11;;;;;;;6.87;3.50;;;;;;;5.18;nan;-23961.25;4992248;28;20251;-65
2023/04/05 02:06:37;;;;;;;2.70;2.40;;;;;;;5.21;nan;-23962.25;4993920;28;20165;-66
2023/04/05 02:09:02;;;;;;;5.80;2.90;;;;;;;5.18;nan;-23961.38;4992591;28;20180;-66
2023/04/05 02:11:28;;;;;;;5.00;3.13;;;;;;;5.21;nan;-23962.25;4990886;28;20180;-67
2023/04/05 02:13:53;;;;;;;5.53;3.27;;;;;;;5.37;nan;-23966.66;4992291;28;20176;-64
2023/04/05 02:16:18;;;;;;;5.37;2.80;;;;;;;5.12;nan;-23959.69;4992551;28;20181;-63
2023/04/05 02:18:49;;;;;;;4.60;3.10;;;;;;;5.20;nan;-23961.97;4992095;28;20244;-62
2023/04/05 02:21:15;;;;;;;4.13;2.63;;;;;;;5.06;nan;-23957.97;4992055;28;20172;-67
2023/04/05 02:23:41;;;;;;;3.70;2.80;;;;;;;5.27;nan;-23963.81;4991814;28;20254;-64
2023/04/05 02:26:06;;;;;;;4.83;3.13;;;;;;;5.44;nan;-23968.50;4991934;28;20247;-67
2023/04/05 02:28:32;;;;;;;5.47;3.73;;;;;;;5.31;nan;-23964.94;4991179;28;20192;-66
2023/04/05 02:30:57;;;;;;;4.50;2.90;;;;;;;5.40;nan;-23967.38;4995381;28;20204;-66
2023/04/05 02:33:23;;;;;;;4.90;3.47;;;;;;;5.09;nan;-23958.69;4995244;28;20176;-67
2023/04/05 02:35:50;;;;;;;4.67;3.33;;;;;;;5.39;nan;-23967.22;4995316;28;20169;-64
2023/04/05 02:38:15;;;;;;;4.10;2.93;;;;;;;5.42;nan;-23967.94;4995253;28;20627;-67
2023/04/05 02:40:41;;;;;;;5.30;3.20;;;;;;;4.94;nan;-23954.41;4995018;28;20177;-65
2023/04/05 02:43:06;;;;;;;3.97;2.90;;;;;;;5.24;nan;-23962.94;4994742;28;20203;-66
2023/04/05 02:45:32;;;;;;;3.57;2.43;;;;;;;5.15;nan;-23960.53;4995220;28;20169;-63
2023/04/05 02:47:57;;;;;;;5.53;3.67;;;;;;;5.45;nan;-23968.78;4995439;28;20567;-66
2023/04/05 02:50:23;;;;;;;4.87;2.93;;;;;;;5.13;nan;-23959.97;4995062;28;20176;-66
2023/04/05 02:52:49;;;;;;;3.80;2.60;;;;;;;4.92;nan;-23954.00;4994916;28;20236;-66
2023/04/05 02:55:15;;;;;;;4.00;2.60;;;;;;;5.03;nan;-23957.13;4995031;28;20264;-64
2023/04/05 02:57:42;;;;;;;5.43;3.10;;;;;;;5.11;nan;-23959.41;4994603;28;20181;-67
2023/04/05 03:00:10;;;;;;;4.17;2.70;;;;;;;4.96;nan;-23955.00;4994809;28;20643;-66
2023/04/05 03:02:36;;;;;;;4.27;3.03;;;;;;;5.25;nan;-23963.38;4994757;28;20230;-65
2023/04/05 03:05:06;;;;;;;5.17;3.07;;;;;;;4.89;nan;-23953.28;4995063;28;20184;-65
2023/04/05 03:07:32;;;;;;;5.60;3.00;;;;;;;5.19;nan;-23961.53;4994947;28;20199;-65
2023/04/05 03:09:58;;;;;;;5.73;3.40;;;;;;;4.96;nan;-23955.00;4996502;28;20200;-66
2023/04/05 03:12:23;;;;;;;4.13;2.90;;;;;;;4.76;nan;-23949.59;4994524;28;20628;-66
2023/04/05 03:14:49;;;;;;;3.83;2.77;;;;;;;4.70;nan;-23947.72;4995137;28;20164;-68
2023/04/05 03:17:14;;;;;;;5.03;3.10;;;;;;;4.93;nan;-23954.13;4994694;28;20642;-67
2023/04/05 03:19:40;;;;;;;5.80;3.27;;;;;;;5.10;nan;-23959.13;4984799;28;20177;-67
2023/04/05 03:22:06;;;;;;;3.03;2.47;;;;;;;4.78;nan;-23950.00;4983035;28;20276;-65
2023/04/05 03:24:32;;;;;;;4.50;3.10;;;;;;;5.11;nan;-23959.41;4980677;28;20232;-63
2023/04/05 03:27:01;;;;;;;6.23;3.30;;;;;;;5.10;nan;-23959.13;4980734;28;20178;-64
2023/04/05 03:29:26;;;;;;;4.17;2.97;;;;;;;4.97;nan;-23955.41;4981498;28;20682;-67
2023/04/05 03:31:52;;;;;;;5.00;3.20;;;;;;;4.82;nan;-23951.16;4983448;28;20182;-67
2023/04/05 03:34:17;;;;;;;5.33;3.00;;;;;;;5.07;nan;-23958.13;4979422;28;20189;-67
2023/04/05 03:36:43;;;;;;;4.20;2.83;;;;;;;4.77;nan;-23949.72;4982937;28;20180;-65
2023/04/05 03:39:09;;;;;;;4.13;2.83;;;;;;;5.24;nan;-23963.09;4983007;28;20174;-64
2023/04/05 03:41:35;;;;;;;5.70;3.23;;;;;;;5.18;nan;-23961.38;4975822;28;20647;-66
2023/04/05 03:44:01;;;;;;;4.33;3.13;;;;;;;4.86;nan;-23952.28;4982383;28;20277;-67
2023/04/05 03:46:26;;;;;;;4.37;3.60;;;;;;;4.98;nan;-23955.69;4982151;28;20775;-65
2023/04/05 03:48:52;;;;;;;5.33;3.60;;;;;;;4.90;nan;-23953.56;4977703;28;20192;-65
2023/04/05 03:51:17;;;;;;;3.93;2.70;;;;;;;4.93;nan;-23954.13;4982237;28;20187;-64
2023/04/05 03:53:43;;;;;;;3.80;2.87;;;;;;;5.01;nan;-23956.41;4982439;28;20197;-64
2023/04/05 03:56:09;;;;;;;5.10;3.30;;;;;;;5.06;nan;-23957.97;4978499;28;20173;-66
2023/04/05 03:58:36;;;;;;;4.53;3.53;;;;;;;4.85;nan;-23952.00;4982122;28;20184;-66
2023/04/05 04:01:01;;;;;;;4.97;2.87;;;;;;;5.15;nan;-23960.53;4982194;28;20545;-64
2023/04/05 04:03:27;;;;;;;5.20;3.20;;;;;;;4.97;nan;-23955.41;4977805;28;20213;-64
2023/04/05 04:05:53;;;;;;;5.50;2.97;;;;;;;4.83;nan;-23951.44;4981968;28;20177;-67
2023/04/05 04:08:19;;;;;;;4.03;3.10;;;;;;;4.99;nan;-23955.84;4982030;28;20574;-64
2023/04/05 04:10:44;;;;;;;3.87;2.80;;;;;;;4.83;nan;-23951.44;4977555;28;20185;-69
2023/04/05 04:13:10;;;;;;;5.27;2.97;;;;;;;5.14;nan;-23960.09;4981359;28;20181;-65
2023/04/05 04:15:35;;;;;;;4.27;2.93;;;;;;;5.10;nan;-23958.97;4984324;28;20177;-63
2023/04/05 04:18:01;;;;;;;3.37;2.63;;;;;;;4.75;nan;-23949.31;4976181;28;20209;-65
2023/04/05 04:20:26;;;;;;;3.17;2.20;;;;;;;5.12;nan;-23959.53;4981079;28;20189;-66
2023/04/05 04:22:52;;;;;;;4.30;3.37;;;;;;;4.97;nan;-23955.28;4984075;28;20666;-65
2023/04/05 04:25:19;;;;;;;3.67;2.80;;;;;;;5.18;nan;-23961.38;4974623;28;20185;-65
2023/04/05 04:27:49;;;;;;;3.20;2.60;;;;;;;5.04;nan;-23957.41;4981848;28;20185;-65
2023/04/05 04:30:15;;;;;;;4.33;3.20;;;;;;;5.25;nan;-23963.38;4985723;28;20188;-67
2023/04/05 04:32:50;;;;;;;6.00;3.43;;;;;;;4.85;nan;-23952.16;4975422;28;20185;-66
2023/04/05 04:35:19;;;;;;;5.07;2.97;;;;;;;5.10;nan;-23959.13;4981925;28;20246;-64
2023/04/05 04:37:56;;;;;;;5.57;2.97;;;;;;;4.91;nan;-23953.72;4983075;28;20564;-67
2023/04/05 04:40:52;;;;;;;3.43;2.30;;;;;;;5.29;nan;-23964.50;4988593;28;20555;-66
2023/04/05 04:43:18;;;;;;;3.80;2.60;;;;;;;4.93;nan;-23954.13;4979802;28;20552;-68
2023/04/05 04:45:45;;;;;;;3.30;2.57;;;;;;;5.25;nan;-23963.38;4981674;28;20192;-68
2023/04/05 04:48:13;;;;;;;4.30;2.40;;;;;;;5.08;nan;-23958.53;4974658;28;20235;-69
2023/04/05 04:50:39;;;;;;;3.73;2.93;;;;;;;5.20;nan;-23961.97;4984669;28;20649;-65
2023/04/05 04:53:05;;;;;;;3.67;2.43;;;;;;;5.44;nan;-23968.50;4981123;28;20741;-66
2023/04/05 04:55:32;;;;;;;4.93;2.50;;;;;;;5.51;nan;-23970.47;4978105;28;20185;-66
2023/04/05 04:57:58;;;;;;;3.73;2.70;;;;;;;5.54;nan;-23971.47;4979756;28;20731;-66
2023/04/05 05:00:24;;;;;;;5.00;3.00;;;;;;;5.71;nan;-23976.16;4980762;28;20184;-67
2023/04/05 05:02:51;;;;;;;2.83;2.30;;;;;;;5.40;nan;-23967.38;4985813;28;20212;-66
2023/04/05 05:05:17;;;;;;;3.70;2.50;;;;;;;5.66;nan;-23974.75;4981001;28;20568;-68
2023/04/05 05:07:43;;;;;;;4.53;2.73;;;;;;;5.68;nan;-23975.47;4983029;28;20339;-64
2023/04/05 05:10:10;;;;;;;4.13;2.50;;;;;;;5.44;nan;-23968.63;4976812;28;20674;-65
2023/04/05 05:12:39;;;;;;;3.43;2.73;;;;;;;5.86;nan;-23980.28;4980495;28;20224;-68
2023/04/05 05:15:05;;;;;;;3.77;2.47;;;;;;;5.85;nan;-23980.16;4982517;28;20180;-67
2023/04/05 05:17:31;;;;;;;3.83;2.77;;;;;;;5.92;nan;-23982.00;4976931;28;20544;-68
2023/04/05 05:19:59;;;;;;;3.80;2.50;;;;;;;5.69;nan;-23975.59;4980865;28;20264;-67
2023/04/05 05:22:24;;;;;;;3.53;2.50;;;;;;;5.73;nan;-23976.75;4979698;28;20259;-68
2023/04/05 05:24:50;;;;;;;3.40;2.33;;;;;;;5.96;nan;-23983.13;4976435;28;20208;-66
2023/04/05 05:27:15;;;;;;;4.87;2.53;;;;;;;6.02;nan;-23984.97;4981140;28;20666;-67
2023/04/05 05:29:41;;;;;;;3.57;2.33;;;;;;;5.87;nan;-23980.72;4981374;28;20236;-65
2023/04/05 05:32:08;;;;;;;3.77;2.57;;;;;;;5.63;nan;-23974.03;4976141;28;20213;-64
2023/04/05 05:34:34;;;;;;;4.17;2.57;;;;;;;6.16;nan;-23988.97;4980694;28;20240;-68
2023/04/05 05:37:00;;;;;;;3.47;2.43;;;;;;;6.16;nan;-23988.81;4983238;28;20189;-68
2023/04/05 05:39:25;;;;;;;3.97;2.37;;;;;;;5.90;nan;-23981.44;4988282;28;20262;-66
2023/04/05 05:41:51;;;;;;;4.57;2.90;;;;;;;6.31;nan;-23992.94;4979396;28;20201;-69
2023/04/05 05:44:16;;;;;;;3.17;2.17;;;;;;;6.38;nan;-23995.06;4983539;28;20303;-67
2023/04/05 05:46:42;;;;;;;5.73;3.43;;;;;;;6.41;nan;-23995.91;4974907;28;20220;-67
2023/04/05 05:49:07;;;;;;;3.60;2.60;;;;;;;6.46;nan;-23997.19;4980462;28;20237;-67
2023/04/05 05:51:34;;;;;;;3.20;2.27;;;;;;;6.39;nan;-23995.22;4978221;28;20189;-66
2023/04/05 05:54:00;;;;;;;4.20;2.70;;;;;;;6.06;nan;-23986.13;4987930;28;20180;-65
2023/04/05 05:56:26;;;;;;;3.50;2.40;;;;;;;6.12;nan;-23987.81;4980616;28;20196;-65
2023/04/05 05:58:51;;;;;;;3.93;2.37;;;;;;;6.21;nan;-23990.38;4983000;28;20173;-67
2023/04/05 06:01:21;;;;;;;3.53;2.37;;;;;;;6.12;nan;-23987.81;4974629;28;20189;-68
2023/04/05 06:03:47;;;;;;;4.03;2.63;;;;;;;6.45;nan;-23997.06;4982510;28;20219;-68
2023/04/05 06:06:13;;;;;;;3.93;2.90;;;;;;;6.47;nan;-23997.47;4988361;28;20177;-68
2023/04/05 06:08:38;;;;;;;4.40;2.73;;;;;;;6.41;nan;-23995.78;4978277;28;20189;-67
2023/04/05 06:11:04;;;;;;;2.40;1.93;;;;;;;6.77;nan;-24006.00;4984774;28;20684;-67
2023/04/05 06:13:29;;;;;;;3.40;2.53;;;;;;;6.43;nan;-23996.50;4987552;28;20234;-67
2023/04/05 06:15:55;;;;;;;2.80;2.27;;;;;;;6.53;nan;-23999.19;4978171;28;20271;-67
2023/04/05 06:18:20;;;;;;;4.13;2.50;;;;;;;7.01;nan;-24012.66;4985967;28;20191;-68
2023/04/05 06:20:46;;;;;;;4.23;2.70;;;;;;;6.98;nan;-24011.94;4984515;28;20335;-68
2023/04/05 06:23:12;;;;;;;4.37;2.80;;;;;;;6.82;nan;-24007.41;4982499;28;20193;-66
2023/04/05 06:25:38;;;;;;;4.33;2.47;;;;;;;7.03;nan;-24013.22;4982699;28;20654;-68
2023/04/05 06:28:04;;;;;;;3.67;2.40;;;;;;;6.73;nan;-24004.72;4987640;28;20548;-67
2023/04/05 06:30:30;;;;;;;3.70;2.37;;;;;;;7.24;nan;-24019.03;4977587;28;20192;-65
2023/04/05 06:32:56;;;;;;;2.77;2.23;;;;;;;6.81;nan;-24007.13;4982198;28;20605;-67
2023/04/05 06:35:23;;;;;;;3.30;2.07;;;;;;;7.59;nan;-24028.97;4986682;28;20187;-67
2023/04/05 06:37:49;;;;;;;2.77;2.10;;;;;;;7.40;nan;-24023.59;4976772;28;20572;-68
2023/04/05 06:40:16;;;;;;;4.93;2.93;;;;;;;7.66;nan;-24030.94;4982985;28;20181;-69
2023/04/05 06:42:41;;;;;;;2.33;2.10;;;;;;;7.61;nan;-24029.41;4984163;28;20187;-69
2023/04/05 06:45:07;;;;;;;2.40;2.20;;;;;;;7.46;nan;-24025.44;4980069;28;20181;-68
2023/04/05 06:47:38;;;;;;;2.90;2.40;;;;;;;7.27;nan;-24019.91;4984174;28;20335;-66
2023/04/05 06:50:05;;;;;;;2.73;2.00;;;;;;;7.39;nan;-24023.31;4988971;28;20184;-65
2023/04/05 06:52:31;;;;;;;4.93;2.63;;;;;;;7.10;nan;-24015.34;4978678;28;20181;-67
2023/04/05 06:54:57;;;;;;;2.93;2.33;;;;;;;7.28;nan;-24020.19;4981767;28;20324;-68
2023/04/05 06:57:22;;;;;;;3.30;2.37;;;;;;;7.33;nan;-24021.75;4984308;28;20267;-69
2023/04/05 06:59:48;;;;;;;3.80;2.50;;;;;;;7.47;nan;-24025.72;4978471;28;20255;-68
2023/04/05 07:02:13;;;;;;;4.00;2.53;;;;;;;7.46;nan;-24025.44;4983684;28;20315;-70
2023/04/05 07:04:40;;;;;;;2.40;2.00;;;;;;;7.55;nan;-24027.84;4985316;28;20247;-67
2023/04/05 07:07:05;;;;;;;1.90;1.70;;;;;;;7.51;nan;-24026.69;4976782;28;20635;-66
2023/04/05 07:09:31;;;;;;;2.57;2.00;;;;;;;7.20;nan;-24018.06;4983015;28;20254;-68
2023/04/05 07:11:58;;;;;;;3.10;2.07;;;;;;;7.23;nan;-24018.75;4984232;28;20195;-66
2023/04/05 07:14:23;;;;;;;2.13;1.90;;;;;;;7.02;nan;-24012.94;4977996;28;20264;-68
2023/04/05 07:16:51;;;;;;;4.27;2.43;;;;;;;7.44;nan;-24024.72;4982517;28;20255;-68
2023/04/05 07:19:17;;;;;;;2.20;1.87;;;;;;;7.41;nan;-24023.88;4982345;28;20269;-68
2023/04/05 07:21:43;;;;;;;2.30;2.10;;;;;;;7.10;nan;-24015.34;4985336;28;20220;-68
2023/04/05 07:24:08;;;;;;;3.53;2.20;;;;;;;7.29;nan;-24020.59;4980323;28;20297;-66
2023/04/05 07:26:34;;;;;;;3.10;2.27;;;;;;;7.78;nan;-24034.34;4981758;28;20256;-66
2023/04/05 07:29:01;;;;;;;3.23;2.20;;;;;;;7.31;nan;-24021.03;4983474;28;20182;-68
2023/04/05 07:31:26;;;;;;;2.17;1.90;;;;;;;7.72;nan;-24032.50;4981857;28;20189;-64
2023/04/05 07:33:52;;;;;;;3.60;2.30;;;;;;;7.23;nan;-24018.75;4982552;28;20548;-65
2023/04/05 07:36:17;;;;;;;2.47;1.87;;;;;;;7.60;nan;-24029.25;4982369;28;20188;-69
2023/04/05 07:38:43;;;;;;;2.63;2.10;;;;;;;7.91;nan;-24038.03;4981418;28;20188;-66
2023/04/05 07:41:10;;;;;;;2.77;2.10;;;;;;;7.42;nan;-24024.16;4981931;28;20272;-66
2023/04/05 07:43:35;;;;;;;2.60;2.20;;;;;;;7.66;nan;-24030.81;4981204;28;20308;-65
2023/04/05 07:46:03;;;;;;;2.67;2.33;;;;;;;7.67;nan;-24031.25;4979993;28;20181;-68
2023/04/05 07:48:29;;;;;;;2.27;2.00;;;;;;;7.69;nan;-24031.66;4984040;28;20300;-66
2023/04/05 07:50:55;;;;;;;2.50;1.90;;;;;;;7.59;nan;-24028.97;4981589;28;20200;-67
2023/04/05 07:53:20;;;;;;;2.43;2.20;;;;;;;8.00;nan;-24040.59;4985143;28;20694;-69
2023/04/05 07:55:46;;;;;;;3.17;2.20;;;;;;;7.71;nan;-24032.22;4981739;28;20205;-67
2023/04/05 07:58:11;;;;;;;2.43;2.07;;;;;;;7.72;nan;-24032.66;4982581;28;20189;-67
2023/04/05 08:00:37;;;;;;;2.40;1.90;;;;;;;7.89;nan;-24037.31;4980972;28;20183;-68
2023/04/05 08:03:03;;;;;;;3.67;2.07;;;;;;;8.23;nan;-24046.81;4981753;28;20296;-66
2023/04/05 08:05:29;;;;;;;1.80;1.67;;;;;;;8.13;nan;-24044.13;4981530;28;20182;-65
2023/04/05 08:07:56;;;;;;;4.50;1.90;;;;;;;7.89;nan;-24037.31;4979664;28;20192;-67
2023/04/05 08:10:22;;;;;;;2.87;2.17;;;;;;;7.76;nan;-24033.78;4982767;28;20652;-68
2023/04/05 08:12:48;;;;;;;2.30;2.10;;;;;;;8.16;nan;-24044.97;4982043;28;20177;-68
2023/04/05 08:15:13;;;;;;;2.40;2.07;;;;;;;8.53;nan;-24055.31;4979697;28;20195;-66
2023/04/05 08:17:39;;;;;;;2.50;1.67;;;;;;;8.27;nan;-24047.94;4979919;28;20188;-68
2023/04/05 08:20:05;;;;;;;2.43;1.90;;;;;;;8.61;nan;-24057.56;4981817;28;20212;-68
2023/04/05 08:22:30;;;;;;;3.20;1.77;;;;;;;8.69;nan;-24059.69;4977278;28;21114;-68
2023/04/05 08:24:56;;;;;;;2.20;1.83;;;;;;;8.27;nan;-24048.09;4984425;28;20232;-69
2023/04/05 08:27:21;;;;;;;1.70;1.60;;;;;;;8.20;nan;-24045.97;4981288;28;20236;-68
2023/04/05 08:29:47;;;;;;;2.50;1.90;;;;;;;8.78;nan;-24062.25;4976247;28;20640;-65
2023/04/05 08:32:12;;;;;;;2.10;1.90;;;;;;;8.80;nan;-24062.81;4981417;28;20312;-66
2023/04/05 08:34:38;;;;;;;1.70;1.60;;;;;;;8.53;nan;-24055.31;4982094;28;20211;-68
2023/04/05 08:37:03;;;;;;;2.27;1.87;;;;;;;8.63;nan;-24058.16;4977829;28;20178;-68
2023/04/05 08:39:29;;;;;;;1.97;1.80;;;;;;;8.56;nan;-24056.03;4982033;28;20176;-68
2023/04/05 08:42:03;;;;;;;2.50;1.80;;;;;;;8.41;nan;-24052.06;4981781;28;20670;-66
2023/04/05 08:44:30;;;;;;;2.37;2.00;;;;;;;8.91;nan;-24065.78;4977862;28;20192;-67
2023/04/05 08:46:57;;;;;;;3.17;2.07;;;;;;;9.07;nan;-24070.31;4980885;28;20244;-65
2023/04/05 08:49:23;;;;;;;2.53;1.80;;;;;;;8.51;nan;-24054.75;4982028;28;20205;-69
2023/04/05 08:51:48;;;;;;;3.63;1.87;;;;;;;8.73;nan;-24060.97;4976027;28;20181;-66
2023/04/05 08:54:14;;;;;;;2.13;1.93;;;;;;;9.10;nan;-24071.31;4979668;28;20215;-67
2023/04/05 08:56:41;;;;;;;3.53;1.97;;;;;;;8.96;nan;-24067.34;4983215;28;20673;-66
2023/04/05 08:59:09;;;;;;;2.17;1.67;;;;;;;8.97;nan;-24067.47;4975391;28;20279;-66
2023/04/05 09:01:43;;;;;;;1.93;1.73;;;;;;;8.85;nan;-24064.22;4982303;28;20674;-67
2023/04/05 09:04:13;;;;;;;4.03;2.33;;;;;;;7.59;nan;-24028.97;4981323;28;20204;-69
2023/04/05 09:06:39;;;;;;;4.97;1.97;;;;;;;8.49;nan;-24054.03;4978801;28;20192;-65
2023/04/05 09:09:08;;;;;;;2.20;1.73;;;;;;;8.91;nan;-24065.78;4979420;28;20536;-65
2023/04/05 09:11:35;;;;;;;1.63;1.53;;;;;;;8.45;nan;-24052.91;4981017;28;20267;-66
2023/04/05 09:14:04;;;;;;;1.90;1.70;;;;;;;8.64;nan;-24058.28;4977542;28;20185;-69
2023/04/05 09:16:36;;;;;;;2.30;2.07;;;;;;;9.19;nan;-24073.72;4981170;28;20192;-65
2023/04/05 09:19:02;;;;;;;2.43;2.00;;;;;;;9.14;nan;-24072.28;4987665;28;20185;-65
2023/04/05 09:21:30;;;;;;;2.10;1.90;;;;;;;8.77;nan;-24062.09;4984416;28;20189;-65
2023/04/05 09:23:56;;;;;;;2.07;1.87;;;;;;;9.32;nan;-24077.38;4981234;28;20220;-67
2023/04/05 09:26:23;;;;;;;1.77;1.67;;;;;;;8.83;nan;-24063.81;4982771;28;20190;-64
2023/04/05 09:28:49;;;;;;;6.10;2.00;;;;;;;9.16;nan;-24073.00;4975071;28;20259;-68
2023/04/05 09:31:31;;;;;;;2.80;1.90;;;;;;;9.49;nan;-24082.19;4980771;28;20272;-68
2023/04/05 09:33:58;;;;;;;1.80;1.70;;;;;;;9.01;nan;-24068.63;4984288;28;20373;-66
2023/04/05 09:36:24;;;;;;;2.17;1.90;;;;;;;9.16;nan;-24072.84;4981224;28;20189;-67
2023/04/05 09:38:50;;;;;;;1.90;1.70;;;;;;;9.18;nan;-24073.41;4982610;28;20185;-67
2023/04/05 09:41:15;;;;;;;1.90;1.70;;;;;;;9.74;nan;-24089.09;4984727;28;20181;-66
2023/04/05 09:43:41;;;;;;;2.43;1.87;;;;;;;9.60;nan;-24085.16;4981734;28;20298;-66
2023/04/05 09:46:32;;;;;;;2.28;2.00;;;;;;;9.99;nan;-24096.03;4983386;28;20291;-69
2023/04/05 09:49:00;;;;;;;2.00;1.80;;;;;;;9.43;nan;-24080.34;4986972;28;20268;-69
2023/04/05 09:51:34;;;;;;;2.23;1.80;;;;;;;9.28;nan;-24076.38;4985897;28;20662;-67
2023/04/05 09:54:05;;;;;;;2.00;1.80;;;;;;;9.16;nan;-24073.00;4984641;28;20192;-67
2023/04/05 09:56:33;;;;;;;2.03;1.77;;;;;;;8.81;nan;-24063.25;4990018;28;20574;-68
2023/04/05 09:59:00;;;;;;;2.00;1.53;;;;;;;8.61;nan;-24057.44;4981238;28;20278;-66
2023/04/05 10:01:27;;;;;;;3.70;1.83;;;;;;;9.03;nan;-24069.19;4983727;28;20672;-66
2023/04/05 10:03:53;;;;;;;2.80;1.90;;;;;;;9.23;nan;-24074.84;4983712;28;20217;-67
2023/04/05 10:06:18;;;;;;;2.40;1.87;;;;;;;9.32;nan;-24077.38;4981919;28;20648;-67
2023/04/05 10:08:47;;;;;;;1.70;1.60;;;;;;;9.16;nan;-24073.00;4985681;28;20264;-67
2023/04/05 10:11:17;;;;;;;2.27;1.70;;;;;;;8.95;nan;-24067.06;4985429;28;20193;-69
2023/04/05 10:13:44;;;;;;;2.83;2.07;;;;;;;9.05;nan;-24069.75;4980562;28;20189;-66
2023/04/05 10:16:16;;;;;;;2.10;1.80;;;;;;;8.44;nan;-24052.78;4984385;28;20188;-65
2023/04/05 10:18:50;;;;;;;2.00;1.73;;;;;;;8.75;nan;-24061.53;4984539;28;20564;-67
2023/04/05 10:21:20;;;;;;;2.60;1.80;;;;;;;8.77;nan;-24062.09;4979987;28;20268;-66
2023/04/05 10:24:08;;;;;;;3.00;2.10;;;;;;;8.55;nan;-24055.75;4986636;28;20217;-68
2023/04/05 10:26:52;;;;;;;2.33;2.10;;;;;;;8.75;nan;-24061.53;4977914;28;20212;-67
2023/04/05 10:29:27;;;;;;;2.20;2.00;;;;;;;9.26;nan;-24075.81;4985722;28;20183;-67
2023/04/05 10:32:17;;;;;;;1.80;1.70;;;;;;;9.50;nan;-24082.47;4988356;28;20275;-65
2023/04/05 10:35:29;;;;;;;2.17;1.97;;;;;;;9.65;nan;-24086.56;4977477;28;20186;-68
2023/04/05 10:38:27;;;;;;;2.67;1.90;;;;;;;9.37;nan;-24078.66;4983107;28;20552;-67
2023/04/05 10:41:13;;;;;;;2.00;1.83;;;;;;;8.81;nan;-24063.09;4988586;28;20562;-68
2023/04/05 10:43:40;;;;;;;2.57;1.83;;;;;;;8.77;nan;-24061.97;4984779;28;20213;-66
2023/04/05 10:46:07;;;;;;;2.37;1.93;;;;;;;9.05;nan;-24069.88;4984904;28;20669;-67
2023/04/05 10:49:12;;;;;;;2.67;2.00;;;;;;;8.92;nan;-24066.06;4977815;28;20189;-66
2023/04/05 10:51:42;;;;;;;3.50;2.03;;;;;;;9.14;nan;-24072.28;4966912;28;20212;-64
2023/04/05 10:54:09;;;;;;;2.30;1.83;;;;;;;8.94;nan;-24066.63;4986210;28;20189;-66
2023/04/05 10:56:36;;;;;;;2.43;1.60;;;;;;;8.88;nan;-24065.22;4977858;28;20619;-67
2023/04/05 10:59:02;;;;;;;1.93;1.63;;;;;;;8.79;nan;-24062.66;4983033;28;20269;-70
2023/04/05 11:01:29;;;;;;;1.70;1.60;;;;;;;8.25;nan;-24047.38;4986412;28;20564;-66
2023/04/05 11:03:54;;;;;;;3.37;2.37;;;;;;;8.56;nan;-24056.16;4975721;28;20213;-68
2023/04/05 11:06:24;;;;;;;2.33;1.90;;;;;;;9.02;nan;-24069.03;4982704;28;20192;-65
2023/04/05 11:09:09;;;;;;;2.77;1.97;;;;;;;9.14;nan;-24072.44;4983679;28;20192;-69
2023/04/05 11:11:38;;;;;;;1.97;1.80;;;;;;;9.02;nan;-24068.91;4985046;28;20292;-70
2023/04/05 11:14:34;;;;;;;2.00;1.80;;;;;;;8.81;nan;-24063.25;4981882;28;20693;-69
2023/04/05 11:17:00;;;;;;;1.87;1.70;;;;;;;9.09;nan;-24070.88;4987936;28;20220;-65
2023/04/05 11:19:47;;;;;;;2.90;2.00;;;;;;;9.26;nan;-24075.81;4977665;28;20181;-67
2023/04/05 11:22:23;;;;;;;2.13;1.77;;;;;;;8.99;nan;-24068.03;4982235;28;20656;-67
2023/04/05 11:24:55;;;;;;;2.23;2.03;;;;;;;9.24;nan;-24075.13;4981899;28;20216;-66
2023/04/05 11:27:26;;;;;;;2.20;1.97;;;;;;;9.16;nan;-24073.00;4988660;28;20191;-67
2023/04/05 11:29:53;;;;;;;1.70;1.60;;;;;;;9.40;nan;-24079.63;4982280;28;20200;-66
2023/04/05 11:32:19;;;;;;;2.57;1.90;;;;;;;8.88;nan;-24064.94;4985290;28;20345;-64
2023/04/05 11:34:58;;;;;;;1.90;1.80;;;;;;;9.25;nan;-24075.41;4978507;28;20185;-67
2023/04/05 11:37:56;;;;;;;3.73;2.13;;;;;;;9.17;nan;-24073.13;4997973;28;20212;-69
2023/04/05 11:40:33;;;;;;;3.00;2.07;;;;;;;9.28;nan;-24076.25;4986392;28;20180;-68
2023/04/05 11:43:10;;;;;;;2.07;1.87;;;;;;;8.99;nan;-24068.03;4983118;28;20185;-67
2023/04/05 11:45:37;;;;;;;2.20;2.00;;;;;;;9.11;nan;-24071.44;4982501;28;20278;-65
2023/04/05 11:48:09;;;;;;;2.47;2.27;;;;;;;9.35;nan;-24078.09;4988482;28;20240;-64
2023/04/05 11:50:37;;;;;;;2.60;2.03;;;;;;;9.60;nan;-24085.16;4981487;28;20311;-67
2023/04/05 11:53:16;;;;;;;2.87;1.93;;;;;;;9.40;nan;-24079.63;4984188;28;20192;-68
2023/04/05 11:55:50;;;;;;;2.80;1.93;;;;;;;9.33;nan;-24077.66;4975354;28;20208;-67
2023/04/05 11:58:23;;;;;;;2.10;1.90;;;;;;;9.15;nan;-24072.56;4980911;28;20185;-67